Time;durP1;ratioP1;P1;durP2;ratioP2;P2;SDS_P1;SDS_P2;PMS_P1;PMS_P2;Temp;Humidity;BMP_temperature;BMP_pressure;BME280_temperature;BME280_humidity;BME280_pressure;Samples;Min_cycle;Max_cycle;Signal;HPM_P1;HPM_P2
2023/10/16 00:01:10;;;;;;;4.57;3.90;;;;;;;;;;5129087;27;20470;-73
2023/10/16 00:03:41;;;;;;;4.87;4.37;;;;;;;;;;5126803;27;20449;-73
2023/10/16 00:06:11;;;;;;;4.33;3.93;;;;;;;;;;5127699;27;20938;-73
2023/10/16 00:08:47;;;;;;;4.93;3.53;;;;;;;;;;5124651;27;20449;-73
2023/10/16 00:11:16;;;;;;;7.37;4.47;;;;;;;;;;5112452;27;20480;-73
2023/10/16 00:13:47;;;;;;;5.60;3.73;;;;;;;;;;5127397;27;20499;-73
2023/10/16 00:16:16;;;;;;;5.13;4.17;;;;;;;;;;5136148;27;20489;-73
2023/10/16 00:18:45;;;;;;;5.30;4.80;;;;;;;;;;5127424;27;20480;-73
2023/10/16 00:21:14;;;;;;;7.40;4.57;;;;;;;;;;5127312;27;20955;-73
2023/10/16 00:23:42;;;;;;;6.17;4.50;;;;;;;;;;5135826;27;20485;-73
2023/10/16 00:26:12;;;;;;;4.43;4.00;;;;;;;;;;5127363;27;20528;-73
2023/10/16 00:28:44;;;;;;;3.87;3.40;;;;;;;;;;5132397;27;21360;-73
2023/10/16 00:31:20;;;;;;;7.63;4.90;;;;;;;;;;5130976;27;20484;-73
2023/10/16 00:33:48;;;;;;;8.40;4.90;;;;;;;;;;5123805;27;20540;-73
2023/10/16 00:36:18;;;;;;;12.87;9.00;;;;;;;;;;5131347;27;20463;-73
2023/10/16 00:38:51;;;;;;;4.80;4.40;;;;;;;;;;5123592;27;20518;-73
2023/10/16 00:41:23;;;;;;;8.20;4.97;;;;;;;;;;5104950;28;20477;-73
2023/10/16 00:43:50;;;;;;;5.60;4.20;;;;;;;;;;5117152;27;20483;-73
2023/10/16 00:46:25;;;;;;;7.90;4.23;;;;;;;;;;5126921;27;20460;-73
2023/10/16 00:48:53;;;;;;;4.53;3.80;;;;;;;;;;5123150;27;20536;-73
2023/10/16 00:51:21;;;;;;;9.63;4.57;;;;;;;;;;5131505;27;20548;-73
2023/10/16 00:53:53;;;;;;;5.60;4.83;;;;;;;;;;5127523;27;20860;-73
2023/10/16 00:56:27;;;;;;;8.77;4.77;;;;;;;;;;5126595;27;20816;-73
2023/10/16 00:58:55;;;;;;;5.43;4.70;;;;;;;;;;5134999;27;20452;-73
2023/10/16 01:01:23;;;;;;;7.33;4.20;;;;;;;;;;5126413;27;20858;-73
2023/10/16 01:03:50;;;;;;;8.70;5.20;;;;;;;;;;5135129;27;20969;-73
2023/10/16 01:06:21;;;;;;;5.03;4.53;;;;;;;;;;5126673;27;21046;-73
2023/10/16 01:08:50;;;;;;;5.47;4.13;;;;;;;;;;5126758;27;20484;-73
2023/10/16 01:11:19;;;;;;;6.77;4.30;;;;;;;;;;5126306;27;20473;-73
2023/10/16 01:13:47;;;;;;;9.03;5.30;;;;;;;;;;5134903;27;20452;-73
2023/10/16 01:16:16;;;;;;;7.27;4.80;;;;;;;;;;5126236;27;20455;-73
2023/10/16 01:18:44;;;;;;;5.60;4.70;;;;;;;;;;5125977;27;20480;-73
2023/10/16 01:21:14;;;;;;;5.50;5.00;;;;;;;;;;5125719;27;20476;-73
2023/10/16 01:23:44;;;;;;;7.30;4.70;;;;;;;;;;5122940;27;20522;-73
2023/10/16 01:26:14;;;;;;;4.40;4.00;;;;;;;;;;5129925;27;20546;-73
2023/10/16 01:28:42;;;;;;;9.43;4.00;;;;;;;;;;5126129;27;20818;-73
2023/10/16 01:31:09;;;;;;;7.27;4.67;;;;;;;;;;5115904;27;20485;-73
2023/10/16 01:33:40;;;;;;;4.17;3.77;;;;;;;;;;5126033;27;20485;-73
2023/10/16 01:36:07;;;;;;;5.13;4.23;;;;;;;;;;5127671;27;20709;-73
2023/10/16 01:38:34;;;;;;;7.00;5.10;;;;;;;;;;5124370;27;20553;-73
2023/10/16 01:41:07;;;;;;;6.07;4.70;;;;;;;;;;5107649;27;20474;-73
2023/10/16 01:43:34;;;;;;;6.50;3.93;;;;;;;;;;5123606;27;20453;-73
2023/10/16 01:46:03;;;;;;;8.60;4.37;;;;;;;;;;5128218;27;20452;-73
2023/10/16 01:48:30;;;;;;;5.40;3.63;;;;;;;;;;5132647;27;20559;-73
2023/10/16 01:50:59;;;;;;;4.20;3.27;;;;;;;;;;5127313;27;20556;-73
2023/10/16 01:53:32;;;;;;;4.67;4.27;;;;;;;;;;5132834;27;20456;-73
2023/10/16 01:56:05;;;;;;;4.60;3.83;;;;;;;;;;5127800;27;21018;-73
2023/10/16 01:58:41;;;;;;;5.57;3.90;;;;;;;;;;5125217;27;20971;-73
2023/10/16 02:01:10;;;;;;;7.73;3.60;;;;;;;;;;5125469;27;20816;-73
2023/10/16 02:03:43;;;;;;;7.37;4.53;;;;;;;;;;5125302;27;21012;-73
2023/10/16 02:06:11;;;;;;;5.27;4.40;;;;;;;;;;5134174;27;20540;-73
2023/10/16 02:08:39;;;;;;;3.97;3.30;;;;;;;;;;5106920;27;20466;-73
2023/10/16 02:11:06;;;;;;;5.83;4.10;;;;;;;;;;5133838;27;20550;-73
2023/10/16 02:13:35;;;;;;;4.77;3.50;;;;;;;;;;5125349;27;20467;-73
2023/10/16 02:16:06;;;;;;;4.07;3.50;;;;;;;;;;5125554;27;20500;-73
2023/10/16 02:18:37;;;;;;;5.50;3.87;;;;;;;;;;5113189;28;20535;-73
2023/10/16 02:21:05;;;;;;;7.67;4.10;;;;;;;;;;5128010;28;20529;-73
2023/10/16 02:23:32;;;;;;;5.60;4.20;;;;;;;;;;5125034;28;20532;-73
2023/10/16 02:26:01;;;;;;;7.07;5.00;;;;;;;;;;5132993;28;20523;-73
2023/10/16 02:28:31;;;;;;;6.13;4.30;;;;;;;;;;5125392;28;20449;-73
2023/10/16 02:31:00;;;;;;;7.70;4.50;;;;;;;;;;5125084;28;20558;-73
2023/10/16 02:33:30;;;;;;;7.13;4.73;;;;;;;;;;5133038;27;20555;-73
2023/10/16 02:35:57;;;;;;;4.90;4.50;;;;;;;;;;5131178;27;20937;-73
2023/10/16 02:38:27;;;;;;;11.43;5.23;;;;;;;;;;5128465;27;20505;-73
2023/10/16 02:41:00;;;;;;;7.37;5.10;;;;;;;;;;5125891;27;20834;-73
2023/10/16 02:43:27;;;;;;;11.87;7.67;;;;;;;;;;5135241;27;20530;-73
2023/10/16 02:45:55;;;;;;;10.90;4.43;;;;;;;;;;5138246;27;20452;-73
2023/10/16 02:48:23;;;;;;;6.03;4.10;;;;;;;;;;5137455;27;20460;-73
2023/10/16 02:50:54;;;;;;;7.03;6.10;;;;;;;;;;5128890;27;20508;-73
2023/10/16 02:53:22;;;;;;;9.40;4.80;;;;;;;;;;5129144;27;20506;-73
2023/10/16 02:55:57;;;;;;;5.83;4.40;;;;;;;;;;5129029;27;20488;-73
2023/10/16 02:58:26;;;;;;;10.10;7.33;;;;;;;;;;5137640;27;20444;-73
2023/10/16 03:00:55;;;;;;;12.13;6.37;;;;;;;;;;5137269;27;20477;-73
2023/10/16 03:03:24;;;;;;;8.20;5.60;;;;;;;;;;5128759;27;20502;-73
2023/10/16 03:05:52;;;;;;;8.40;5.93;;;;;;;;;;5136916;27;20522;-73
2023/10/16 03:08:22;;;;;;;7.60;4.83;;;;;;;;;;5128770;27;20448;-73
2023/10/16 03:10:51;;;;;;;7.00;5.30;;;;;;;;;;5129246;27;20472;-73
2023/10/16 03:13:18;;;;;;;6.10;4.23;;;;;;;;;;5137022;27;20456;-73
2023/10/16 03:15:47;;;;;;;8.70;6.10;;;;;;;;;;5128946;27;20492;-73
2023/10/16 03:18:22;;;;;;;8.40;6.30;;;;;;;;;;5128724;27;20452;-73
2023/10/16 03:20:49;;;;;;;7.90;5.50;;;;;;;;;;5136912;27;20464;-73
2023/10/16 03:23:18;;;;;;;7.60;5.33;;;;;;;;;;5136908;27;20459;-73
2023/10/16 03:25:52;;;;;;;16.90;10.20;;;;;;;;;;5128576;27;20818;-73
2023/10/16 03:28:19;;;;;;;9.20;5.50;;;;;;;;;;5128538;27;20441;-73
2023/10/16 03:30:47;;;;;;;6.17;4.60;;;;;;;;;;5124507;27;20484;-73
2023/10/16 03:33:15;;;;;;;7.70;4.27;;;;;;;;;;5132391;27;20457;-73
2023/10/16 03:35:44;;;;;;;5.80;4.80;;;;;;;;;;5128212;27;20496;-73
2023/10/16 03:38:11;;;;;;;8.17;5.67;;;;;;;;;;5136796;27;20445;-73
2023/10/16 03:40:41;;;;;;;5.50;4.10;;;;;;;;;;5136482;27;20472;-73
2023/10/16 03:43:09;;;;;;;9.17;5.10;;;;;;;;;;5128340;27;20452;-73
2023/10/16 03:45:40;;;;;;;19.13;5.73;;;;;;;;;;5134286;27;20947;-73
2023/10/16 03:48:10;;;;;;;5.90;5.30;;;;;;;;;;5131411;27;20886;-73
2023/10/16 03:50:39;;;;;;;6.47;4.60;;;;;;;;;;5127713;27;20473;-73
2023/10/16 03:53:08;;;;;;;6.10;4.30;;;;;;;;;;5127966;27;20525;-73
2023/10/16 03:55:48;;;;;;;12.60;5.07;;;;;;;;;;5127683;27;20492;-73
2023/10/16 03:58:16;;;;;;;3.93;3.50;;;;;;;;;;5128062;27;20465;-73
2023/10/16 04:03:27;;;;;;;6.73;4.57;;;;;;;;;;5135637;27;20476;-73
2023/10/16 04:05:57;;;;;;;9.10;4.13;;;;;;;;;;5131308;27;20441;-73
2023/10/16 04:08:25;;;;;;;8.87;4.60;;;;;;;;;;5133256;27;20961;-73
2023/10/16 04:10:57;;;;;;;7.33;5.23;;;;;;;;;;5127476;27;20978;-73
2023/10/16 04:13:26;;;;;;;8.00;5.50;;;;;;;;;;5135943;27;20449;-73
2023/10/16 04:16:13;;;;;;;8.20;5.67;;;;;;;;;;5127351;27;20521;-73
2023/10/16 04:18:41;;;;;;;8.67;5.47;;;;;;;;;;5132892;27;20947;-73
2023/10/16 04:23:56;;;;;;;5.57;4.90;;;;;;;;;;5119078;27;20519;-73
2023/10/16 04:26:46;;;;;;;7.03;4.50;;;;;;;;;;5127332;27;20971;-73
2023/10/16 04:29:25;;;;;;;11.63;4.27;;;;;;;;;;5117085;27;20452;-73
2023/10/16 04:31:58;;;;;;;27.83;5.30;;;;;;;;;;5128152;27;20527;-73
2023/10/16 04:34:31;;;;;;;36.83;6.90;;;;;;;;;;5127169;27;20527;-73
2023/10/16 04:45:38;;;;;;;67.83;7.10;;;;;;;;;;5127618;27;20440;-73
2023/10/16 04:48:23;;;;;;;42.93;7.07;;;;;;;;;;5129864;27;20459;-73
2023/10/16 04:53:47;;;;;;;18.63;6.70;;;;;;;;;;5126313;27;20607;-73
2023/10/16 04:56:16;;;;;;;21.50;11.27;;;;;;;;;;5134601;27;20900;-73
2023/10/16 04:58:59;;;;;;;14.07;8.67;;;;;;;;;;5126192;27;20461;-73
2023/10/16 05:01:55;;;;;;;10.10;7.20;;;;;;;;;;5134012;27;20469;-73
2023/10/16 05:07:17;;;;;;;77.87;8.80;;;;;;;;;;5123226;27;20433;-73
2023/10/16 05:10:12;;;;;;;74.07;9.73;;;;;;;;;;5134921;27;21027;-73
2023/10/16 05:16:27;;;;;;;35.63;7.77;;;;;;;;;;5134435;27;20848;-73
2023/10/16 05:18:47;;;;;;;18.10;5.27;;;;;;;;;;5125211;27;20449;-73
2023/10/16 06:16:18;;;;;;;16.00;8.50;;;;;;;;;;5132973;27;20565;-72
2023/10/16 06:18:45;;;;;;;10.77;6.90;;;;;;;;;;5120946;27;20488;-73
2023/10/16 06:21:15;;;;;;;33.03;8.30;;;;;;;;;;5118488;27;20460;-73
2023/10/16 06:23:48;;;;;;;50.10;9.17;;;;;;;;;;5131955;28;20475;-73
2023/10/16 06:26:18;;;;;;;21.57;5.70;;;;;;;;;;5131754;28;20539;-73
2023/10/16 06:28:49;;;;;;;35.03;7.93;;;;;;;;;;5131937;28;20950;-73
2023/10/16 06:31:22;;;;;;;65.87;8.53;;;;;;;;;;5131640;28;20511;-73
2023/10/16 06:33:53;;;;;;;70.03;9.60;;;;;;;;;;5105198;28;20514;-73
2023/10/16 06:36:24;;;;;;;83.60;9.37;;;;;;;;;;5123083;28;20521;-73
2023/10/16 06:38:52;;;;;;;58.67;7.17;;;;;;;;;;5127142;28;20478;-73
2023/10/16 06:41:19;;;;;;;50.03;7.33;;;;;;;;;;5128512;28;20477;-73
2023/10/16 06:43:50;;;;;;;20.43;6.20;;;;;;;;;;5119142;28;20450;-73
2023/10/16 06:46:23;;;;;;;17.50;6.53;;;;;;;;;;5127439;28;20903;-73
2023/10/16 06:48:51;;;;;;;40.20;7.40;;;;;;;;;;5119130;27;20537;-73
2023/10/16 06:51:25;;;;;;;18.90;6.67;;;;;;;;;;5100937;28;20489;-73
2023/10/16 06:53:56;;;;;;;38.17;7.60;;;;;;;;;;5124871;28;20462;-73
2023/10/16 06:56:31;;;;;;;19.10;6.33;;;;;;;;;;5132175;28;20492;-73
2023/10/16 06:58:58;;;;;;;10.77;7.00;;;;;;;;;;5132620;28;20463;-72
2023/10/16 07:01:26;;;;;;;11.93;6.30;;;;;;;;;;5131520;28;20472;-73
2023/10/16 07:03:55;;;;;;;24.27;7.43;;;;;;;;;;5120815;28;20458;-73
2023/10/16 07:06:24;;;;;;;9.47;5.70;;;;;;;;;;5128896;28;20452;-73
2023/10/16 07:08:53;;;;;;;13.20;6.03;;;;;;;;;;5132571;28;20872;-73
2023/10/16 07:11:21;;;;;;;9.33;6.57;;;;;;;;;;5124036;28;20830;-73
2023/10/16 07:13:49;;;;;;;28.67;6.43;;;;;;;;;;5126198;28;20454;-73
2023/10/16 07:16:16;;;;;;;12.43;5.90;;;;;;;;;;5126863;28;20545;-73
2023/10/16 07:18:45;;;;;;;9.33;6.80;;;;;;;;;;5122785;28;20459;-73
2023/10/16 07:21:17;;;;;;;8.37;6.07;;;;;;;;;;5134044;27;20812;-73
2023/10/16 07:23:45;;;;;;;8.60;6.03;;;;;;;;;;5126406;27;20539;-73
2023/10/16 07:26:16;;;;;;;9.20;6.40;;;;;;;;;;5126265;27;20938;-73
2023/10/16 07:28:48;;;;;;;11.33;7.07;;;;;;;;;;5126141;27;20825;-73
2023/10/16 07:31:19;;;;;;;8.10;5.87;;;;;;;;;;5127860;27;20940;-73
2023/10/16 07:33:50;;;;;;;7.67;5.60;;;;;;;;;;5123850;27;20531;-73
2023/10/16 07:36:17;;;;;;;8.50;5.83;;;;;;;;;;5131846;27;20563;-73
2023/10/16 07:38:49;;;;;;;9.83;6.60;;;;;;;;;;5108863;27;20513;-73
2023/10/16 07:41:19;;;;;;;8.47;5.60;;;;;;;;;;5135935;27;20476;-73
2023/10/16 07:43:47;;;;;;;14.90;6.47;;;;;;;;;;5135849;27;20493;-73
2023/10/16 07:46:19;;;;;;;7.60;5.80;;;;;;;;;;5127024;27;20465;-73
2023/10/16 07:48:50;;;;;;;6.10;4.40;;;;;;;;;;5104620;28;20932;-73
2023/10/16 07:51:19;;;;;;;9.70;5.73;;;;;;;;;;5131157;27;20475;-73
2023/10/16 07:53:48;;;;;;;10.60;6.00;;;;;;;;;;5135801;27;21023;-73
2023/10/16 07:56:25;;;;;;;11.60;5.53;;;;;;;;;;5135518;27;20500;-73
2023/10/16 07:58:56;;;;;;;18.43;5.70;;;;;;;;;;5108612;27;20543;-73
2023/10/16 08:01:42;;;;;;;32.97;7.37;;;;;;;;;;5126860;27;20469;-73
2023/10/16 08:04:35;;;;;;;29.23;7.50;;;;;;;;;;5126959;27;20445;-73
2023/10/16 08:07:08;;;;;;;63.27;9.73;;;;;;;;;;5129287;27;20556;-73
2023/10/16 08:10:28;;;;;;;26.57;7.07;;;;;;;;;;5126605;27;20444;-73
2023/10/16 08:12:46;;;;;;;28.43;8.53;;;;;;;;;;5126604;27;20477;-73
2023/10/16 08:15:21;;;;;;;80.00;11.73;;;;;;;;;;5135242;27;20820;-73
2023/10/16 08:17:49;;;;;;;19.60;9.00;;;;;;;;;;5123159;27;20640;-73
2023/10/16 08:20:18;;;;;;;25.73;7.03;;;;;;;;;;5130952;27;20484;-73
2023/10/16 08:22:46;;;;;;;45.80;7.77;;;;;;;;;;5131680;27;21005;-73
2023/10/16 08:25:30;;;;;;;30.53;8.10;;;;;;;;;;5130496;27;20445;-73
2023/10/16 08:27:58;;;;;;;13.67;6.30;;;;;;;;;;5122984;27;20506;-73
2023/10/16 08:30:34;;;;;;;29.03;7.50;;;;;;;;;;5131886;27;20477;-74
2023/10/16 08:33:07;;;;;;;62.13;9.90;;;;;;;;;;5129027;27;20464;-74
2023/10/16 08:35:38;;;;;;;18.13;6.33;;;;;;;;;;5133267;27;20810;-73
2023/10/16 08:38:11;;;;;;;97.37;10.30;;;;;;;;;;5135016;27;20545;-73
2023/10/16 08:40:39;;;;;;;18.80;7.23;;;;;;;;;;5131460;27;20560;-73
2023/10/16 08:43:08;;;;;;;30.53;7.90;;;;;;;;;;5104595;28;20544;-74
2023/10/16 08:45:44;;;;;;;14.60;7.50;;;;;;;;;;5124524;27;20458;-73
2023/10/16 08:48:17;;;;;;;11.30;6.60;;;;;;;;;;5116372;27;20946;-73
2023/10/16 08:50:52;;;;;;;16.40;7.27;;;;;;;;;;5126006;27;20488;-74
2023/10/16 08:53:32;;;;;;;11.93;7.73;;;;;;;;;;5126564;27;20458;-73
2023/10/16 08:56:03;;;;;;;8.27;6.50;;;;;;;;;;5122410;27;20498;-74
2023/10/16 08:58:30;;;;;;;11.37;6.77;;;;;;;;;;5132275;27;20480;-74
2023/10/16 09:00:59;;;;;;;14.03;8.13;;;;;;;;;;5126005;27;20492;-74
2023/10/16 09:03:26;;;;;;;10.43;8.47;;;;;;;;;;5133605;27;20974;-74
2023/10/16 09:05:55;;;;;;;17.53;9.13;;;;;;;;;;5122311;27;20821;-74
2023/10/16 09:08:24;;;;;;;20.90;9.50;;;;;;;;;;5122230;27;20547;-74
2023/10/16 09:10:51;;;;;;;12.07;9.30;;;;;;;;;;5125671;27;20477;-74
2023/10/16 09:13:19;;;;;;;16.73;11.83;;;;;;;;;;5125572;27;20939;-74
2023/10/16 09:15:46;;;;;;;25.13;15.67;;;;;;;;;;5122454;27;20811;-73
2023/10/16 09:18:18;;;;;;;13.67;10.63;;;;;;;;;;5129201;27;20491;-73
2023/10/16 09:20:46;;;;;;;16.87;10.00;;;;;;;;;;5125313;27;20484;-74
2023/10/16 09:23:14;;;;;;;15.60;10.70;;;;;;;;;;5126824;27;20446;-74
2023/10/16 09:25:45;;;;;;;16.33;10.53;;;;;;;;;;5130231;27;20469;-74
2023/10/16 09:28:18;;;;;;;13.60;10.67;;;;;;;;;;5129089;27;20826;-74
2023/10/16 09:30:46;;;;;;;14.97;10.77;;;;;;;;;;5129992;27;20481;-74
2023/10/16 09:33:15;;;;;;;17.57;12.87;;;;;;;;;;5122088;27;20454;-74
2023/10/16 09:35:47;;;;;;;17.63;12.93;;;;;;;;;;5133468;27;20448;-74
2023/10/16 09:38:18;;;;;;;18.00;13.17;;;;;;;;;;5125335;27;20488;-74
2023/10/16 09:40:46;;;;;;;21.80;13.67;;;;;;;;;;5124940;27;20477;-74
2023/10/16 09:43:24;;;;;;;22.80;14.97;;;;;;;;;;5126228;27;20446;-74
2023/10/16 09:46:21;;;;;;;27.77;16.83;;;;;;;;;;5121734;27;20446;-74
2023/10/16 09:48:42;;;;;;;17.13;13.77;;;;;;;;;;5124153;27;20452;-74
2023/10/16 09:51:12;;;;;;;57.90;17.83;;;;;;;;;;5124809;27;20476;-74
2023/10/16 09:53:39;;;;;;;31.23;16.33;;;;;;;;;;5133192;27;20456;-74
2023/10/16 09:56:09;;;;;;;43.50;16.77;;;;;;;;;;5124882;27;20447;-74
2023/10/16 09:58:40;;;;;;;28.93;13.53;;;;;;;;;;5131020;27;20946;-74
2023/10/16 10:01:09;;;;;;;24.33;14.83;;;;;;;;;;5128191;27;20484;-74
2023/10/16 10:03:38;;;;;;;28.07;13.03;;;;;;;;;;5124728;27;20476;-74
2023/10/16 10:06:12;;;;;;;47.10;15.30;;;;;;;;;;5124719;27;20600;-74
2023/10/16 10:09:21;;;;;;;37.40;14.73;;;;;;;;;;5122132;27;20460;-73
2023/10/16 10:11:47;;;;;;;21.60;14.33;;;;;;;;;;5132259;27;20870;-74
2023/10/16 10:14:27;;;;;;;22.60;15.03;;;;;;;;;;5124696;27;20453;-74
2023/10/16 10:16:58;;;;;;;15.50;13.20;;;;;;;;;;5121337;27;20497;-74
2023/10/16 10:19:32;;;;;;;18.73;12.50;;;;;;;;;;5129292;27;20448;-74
2023/10/16 10:22:05;;;;;;;16.37;10.17;;;;;;;;;;5126293;27;20473;-74
2023/10/16 10:24:35;;;;;;;18.73;12.33;;;;;;;;;;5123249;27;20817;-74
2023/10/16 10:27:05;;;;;;;13.20;11.37;;;;;;;;;;5121093;27;20454;-74
2023/10/16 10:29:34;;;;;;;17.30;12.20;;;;;;;;;;5121928;28;20512;-74
2023/10/16 10:32:07;;;;;;;17.30;11.63;;;;;;;;;;5132880;28;20502;-74
2023/10/16 10:34:34;;;;;;;14.40;11.60;;;;;;;;;;5133052;27;20552;-74
2023/10/16 10:37:07;;;;;;;14.93;11.30;;;;;;;;;;5127134;28;21015;-74
2023/10/16 10:39:50;;;;;;;26.87;19.17;;;;;;;;;;5130951;28;20468;-74
2023/10/16 10:42:24;;;;;;;24.23;16.60;;;;;;;;;;5124246;28;20918;-74
2023/10/16 10:44:58;;;;;;;20.17;11.40;;;;;;;;;;5125143;27;20447;-74
2023/10/16 10:47:30;;;;;;;15.70;12.00;;;;;;;;;;5124237;28;20483;-74
2023/10/16 10:49:59;;;;;;;18.20;12.40;;;;;;;;;;5124356;28;20980;-74
2023/10/16 10:52:27;;;;;;;18.70;11.50;;;;;;;;;;5132220;28;20854;-74
2023/10/16 10:54:59;;;;;;;12.87;9.83;;;;;;;;;;5122128;27;20484;-74
2023/10/16 10:57:27;;;;;;;11.37;10.13;;;;;;;;;;5133633;27;20942;-74
2023/10/16 10:59:56;;;;;;;13.23;10.53;;;;;;;;;;5110248;27;20448;-74
2023/10/16 11:02:48;;;;;;;16.70;11.87;;;;;;;;;;5128320;27;20477;-74
2023/10/16 11:10:44;;;;;;;13.47;8.70;;;;;;;;;;5122321;27;21006;-74
2023/10/16 11:13:12;;;;;;;11.40;9.47;;;;;;;;;;5131824;27;20884;-74
2023/10/16 11:15:46;;;;;;;9.97;8.40;;;;;;;;;;5125447;27;20459;-74
2023/10/16 11:18:18;;;;;;;11.10;9.90;;;;;;;;;;5131766;27;20521;-75
2023/10/16 11:20:46;;;;;;;14.63;9.50;;;;;;;;;;5132899;27;20530;-74
2023/10/16 11:23:15;;;;;;;14.43;11.00;;;;;;;;;;5113354;27;20457;-75
2023/10/16 11:25:45;;;;;;;14.00;10.60;;;;;;;;;;5127730;27;20488;-74
2023/10/16 11:28:17;;;;;;;12.23;9.97;;;;;;;;;;5129320;27;20457;-74
2023/10/16 11:30:45;;;;;;;11.20;9.50;;;;;;;;;;5132458;27;20843;-74
2023/10/16 11:33:13;;;;;;;16.20;10.40;;;;;;;;;;5131282;27;20448;-75
2023/10/16 11:35:46;;;;;;;15.90;10.83;;;;;;;;;;5135859;27;20444;-74
2023/10/16 11:38:19;;;;;;;15.50;11.00;;;;;;;;;;5136124;27;20496;-74
2023/10/16 11:40:50;;;;;;;15.40;9.50;;;;;;;;;;5127167;27;20476;-74
2023/10/16 11:43:19;;;;;;;11.87;10.60;;;;;;;;;;5127462;27;20491;-74
2023/10/16 11:45:53;;;;;;;47.87;10.60;;;;;;;;;;5127685;27;20455;-74
2023/10/16 11:48:35;;;;;;;13.00;9.00;;;;;;;;;;5127407;27;20456;-74
2023/10/16 11:51:10;;;;;;;11.47;9.00;;;;;;;;;;5129417;27;20476;-74
2023/10/16 11:53:38;;;;;;;11.07;9.80;;;;;;;;;;5127117;27;20452;-75
2023/10/16 11:56:08;;;;;;;9.47;8.63;;;;;;;;;;5135792;27;20493;-75
2023/10/16 11:58:35;;;;;;;11.47;9.40;;;;;;;;;;5126626;27;20485;-73
2023/10/16 12:01:09;;;;;;;11.40;8.73;;;;;;;;;;5135657;27;20488;-74
2023/10/16 12:03:37;;;;;;;10.23;9.13;;;;;;;;;;5126968;27;20536;-74
2023/10/16 12:06:09;;;;;;;10.67;8.23;;;;;;;;;;5128317;27;20951;-74
2023/10/16 12:08:40;;;;;;;10.07;8.27;;;;;;;;;;5133727;27;20455;-74
2023/10/16 12:11:13;;;;;;;10.97;9.13;;;;;;;;;;5135422;27;20476;-74
2023/10/16 12:13:41;;;;;;;9.33;8.17;;;;;;;;;;5127069;27;20501;-74
2023/10/16 12:16:08;;;;;;;8.73;7.00;;;;;;;;;;5128977;27;20896;-75
2023/10/16 12:18:35;;;;;;;7.40;6.70;;;;;;;;;;5124962;27;20489;-74
2023/10/16 12:21:08;;;;;;;10.53;8.10;;;;;;;;;;5126902;27;20473;-74
2023/10/16 12:23:38;;;;;;;8.47;7.63;;;;;;;;;;5126751;27;20509;-74
2023/10/16 12:26:07;;;;;;;10.63;8.60;;;;;;;;;;5116791;27;20475;-74
2023/10/16 12:28:35;;;;;;;8.90;8.00;;;;;;;;;;5133655;27;20909;-75
2023/10/16 12:31:03;;;;;;;10.57;7.37;;;;;;;;;;5122785;27;20992;-74
2023/10/16 12:33:31;;;;;;;9.50;6.50;;;;;;;;;;5131569;27;20452;-75
2023/10/16 12:36:01;;;;;;;7.03;6.33;;;;;;;;;;5128284;27;20480;-74
2023/10/16 12:38:29;;;;;;;9.60;6.90;;;;;;;;;;5134924;27;21014;-74
2023/10/16 12:40:58;;;;;;;8.27;7.47;;;;;;;;;;5126114;27;20507;-75
2023/10/16 12:43:27;;;;;;;7.37;5.77;;;;;;;;;;5126133;27;20549;-74
2023/10/16 12:45:57;;;;;;;7.73;5.87;;;;;;;;;;5108125;27;20480;-74
2023/10/16 12:48:25;;;;;;;7.37;6.23;;;;;;;;;;5133900;27;20927;-73
2023/10/16 12:50:53;;;;;;;10.43;7.30;;;;;;;;;;5125921;27;20465;-74
2023/10/16 12:53:21;;;;;;;7.97;6.77;;;;;;;;;;5125941;27;20490;-74
2023/10/16 12:55:52;;;;;;;12.23;7.67;;;;;;;;;;5126128;27;20448;-73
2023/10/16 12:58:19;;;;;;;6.83;5.40;;;;;;;;;;5125608;27;20512;-74
2023/10/16 13:00:50;;;;;;;6.40;5.30;;;;;;;;;;5134263;27;20473;-74
2023/10/16 13:03:20;;;;;;;9.60;6.83;;;;;;;;;;5126161;27;20460;-74
2023/10/16 13:05:49;;;;;;;8.13;6.60;;;;;;;;;;5122255;27;20449;-75
2023/10/16 13:08:20;;;;;;;8.50;7.20;;;;;;;;;;5129610;27;20449;-73
2023/10/16 13:10:48;;;;;;;13.27;9.50;;;;;;;;;;5134102;27;20464;-73
2023/10/16 13:13:19;;;;;;;12.53;10.93;;;;;;;;;;5108085;28;20461;-73
2023/10/16 13:15:51;;;;;;;10.70;8.33;;;;;;;;;;5125544;27;20459;-74
2023/10/16 13:18:26;;;;;;;9.70;7.97;;;;;;;;;;5125557;27;20572;-74
2023/10/16 13:20:57;;;;;;;9.77;7.83;;;;;;;;;;5125959;27;20472;-74
2023/10/16 13:23:25;;;;;;;9.83;8.80;;;;;;;;;;5133696;27;20462;-74
2023/10/16 13:25:56;;;;;;;12.00;9.37;;;;;;;;;;5129490;27;20464;-74
2023/10/16 13:28:24;;;;;;;11.37;8.27;;;;;;;;;;5130338;27;20476;-74
2023/10/16 13:30:52;;;;;;;10.90;9.60;;;;;;;;;;5129435;27;20473;-74
2023/10/16 13:33:21;;;;;;;13.03;9.10;;;;;;;;;;5129682;27;20448;-74
2023/10/16 13:35:48;;;;;;;9.40;7.80;;;;;;;;;;5121925;27;20448;-74
2023/10/16 13:38:18;;;;;;;9.07;7.33;;;;;;;;;;5121463;27;20489;-75
2023/10/16 13:40:46;;;;;;;8.40;6.40;;;;;;;;;;5132960;27;20864;-73
2023/10/16 13:43:17;;;;;;;10.83;7.90;;;;;;;;;;5133462;27;20939;-75
2023/10/16 13:45:44;;;;;;;8.00;6.10;;;;;;;;;;5125275;27;20830;-75
2023/10/16 13:48:12;;;;;;;9.80;7.67;;;;;;;;;;5124662;27;20464;-75
2023/10/16 13:50:47;;;;;;;13.27;7.80;;;;;;;;;;5134166;22;20491;-72
2023/10/16 13:53:15;;;;;;;7.40;6.13;;;;;;;;;;5107812;28;20457;-72
2023/10/16 13:55:42;;;;;;;34.50;27.90;;;;;;;;;;5104298;28;20456;-73
2023/10/16 13:58:10;;;;;;;9.60;8.37;;;;;;;;;;5112509;28;20865;-72
2023/10/16 14:00:38;;;;;;;12.43;5.70;;;;;;;;;;5103860;28;20479;-73
2023/10/16 14:03:08;;;;;;;10.33;5.50;;;;;;;;;;5098118;28;20455;-73
2023/10/16 14:05:40;;;;;;;9.70;5.30;;;;;;;;;;5102192;28;20594;-72
2023/10/16 14:08:10;;;;;;;6.60;5.00;;;;;;;;;;5104216;28;20474;-72
2023/10/16 14:10:45;;;;;;;6.00;4.23;;;;;;;;;;5101633;28;20456;-72
2023/10/16 14:13:18;;;;;;;5.10;4.30;;;;;;;;;;5099252;28;20880;-72
2023/10/16 14:15:46;;;;;;;6.57;4.30;;;;;;;;;;5100849;28;20648;-72
2023/10/16 14:18:20;;;;;;;8.20;4.40;;;;;;;;;;5100504;28;20529;-72
2023/10/16 14:20:47;;;;;;;4.40;3.50;;;;;;;;;;5100194;28;20975;-73
2023/10/16 14:23:17;;;;;;;4.47;3.77;;;;;;;;;;5091742;28;20451;-72
2023/10/16 14:25:48;;;;;;;3.50;2.70;;;;;;;;;;5103264;28;20458;-72
2023/10/16 14:28:34;;;;;;;7.20;4.73;;;;;;;;;;5104823;28;20447;-73
2023/10/16 14:31:02;;;;;;;6.10;5.00;;;;;;;;;;5091703;28;20510;-72
2023/10/16 14:33:36;;;;;;;5.17;4.40;;;;;;;;;;5108288;28;20450;-72
2023/10/16 14:36:04;;;;;;;4.13;3.67;;;;;;;;;;5106253;28;20847;-72
2023/10/16 14:38:33;;;;;;;6.20;3.93;;;;;;;;;;5102202;28;20494;-72
2023/10/16 14:41:04;;;;;;;3.73;3.30;;;;;;;;;;5095907;28;20547;-72
2023/10/16 14:43:34;;;;;;;6.00;4.30;;;;;;;;;;5102161;28;20466;-72
2023/10/16 14:46:02;;;;;;;6.57;5.40;;;;;;;;;;5097825;28;20458;-73
2023/10/16 14:48:29;;;;;;;26.17;18.63;;;;;;;;;;5100632;28;20442;-72
2023/10/16 14:50:56;;;;;;;88.17;70.43;;;;;;;;;;5103309;28;20474;-72
2023/10/16 14:53:25;;;;;;;15.50;13.27;;;;;;;;;;5036697;23;20513;-72
2023/10/16 14:55:54;;;;;;;10.13;9.03;;;;;;;;;;4961339;28;20459;-70
2023/10/16 14:58:21;;;;;;;15.63;13.67;;;;;;;;;;4969762;28;20501;-72
2023/10/16 15:00:50;;;;;;;5.47;4.73;;;;;;;;;;4961423;28;20481;-72
2023/10/16 15:03:17;;;;;;;49.80;31.30;;;;;;;;;;4969666;28;20488;-72
2023/10/16 15:05:49;;;;;;;7.23;5.40;;;;;;;;;;4970196;28;20538;-73
2023/10/16 15:08:18;;;;;;;6.03;5.43;;;;;;;;;;4969661;28;20492;-72
2023/10/16 15:10:47;;;;;;;5.57;5.00;;;;;;;;;;4969442;28;20542;-72
2023/10/16 15:13:16;;;;;;;6.63;5.57;;;;;;;;;;4969436;28;20916;-72
2023/10/16 15:15:44;;;;;;;6.00;4.80;;;;;;;;;;4969520;28;20464;-72
2023/10/16 15:18:12;;;;;;;6.37;4.37;;;;;;;;;;4969182;28;20496;-72
2023/10/16 15:20:40;;;;;;;5.97;3.83;;;;;;;;;;4969613;28;20473;-72
2023/10/16 15:23:11;;;;;;;6.57;5.10;;;;;;;;;;4969751;28;20468;-72
2023/10/16 15:25:38;;;;;;;8.17;5.47;;;;;;;;;;4968913;28;20884;-72
2023/10/16 15:28:06;;;;;;;9.07;5.63;;;;;;;;;;4968895;28;20457;-72
2023/10/16 15:30:35;;;;;;;6.03;4.43;;;;;;;;;;4968176;28;20959;-72
2023/10/16 15:33:06;;;;;;;5.90;4.97;;;;;;;;;;4968207;28;20456;-72
2023/10/16 15:35:33;;;;;;;6.23;4.60;;;;;;;;;;4968813;28;20465;-71
2023/10/16 15:38:00;;;;;;;5.53;3.70;;;;;;;;;;4968710;28;20895;-72
2023/10/16 15:40:29;;;;;;;12.93;8.00;;;;;;;;;;4969676;28;20491;-72
2023/10/16 15:42:59;;;;;;;32.57;16.43;;;;;;;;;;4972549;28;20453;-72
2023/10/16 15:45:26;;;;;;;10.47;7.10;;;;;;;;;;4972555;28;20465;-72
2023/10/16 15:48:07;;;;;;;12.13;5.37;;;;;;;;;;4972566;28;20456;-72
2023/10/16 15:50:35;;;;;;;8.50;6.17;;;;;;;;;;4972720;28;20453;-72
2023/10/16 15:53:04;;;;;;;7.87;6.27;;;;;;;;;;4972581;28;20504;-70
2023/10/16 15:55:31;;;;;;;6.63;4.70;;;;;;;;;;4971959;28;20496;-70
2023/10/16 15:57:59;;;;;;;5.30;3.80;;;;;;;;;;4972260;28;20468;-71
2023/10/16 16:00:26;;;;;;;7.67;5.07;;;;;;;;;;4972034;28;20646;-72
2023/10/16 16:02:56;;;;;;;9.70;6.93;;;;;;;;;;4972641;28;20966;-71
2023/10/16 16:05:27;;;;;;;9.20;8.07;;;;;;;;;;4971945;28;20910;-71
2023/10/16 16:07:54;;;;;;;7.97;5.97;;;;;;;;;;4972355;28;20464;-71
2023/10/16 16:10:22;;;;;;;13.93;7.77;;;;;;;;;;4971901;28;20460;-71
2023/10/16 16:12:49;;;;;;;16.40;10.10;;;;;;;;;;4964287;28;20460;-71
2023/10/16 16:15:17;;;;;;;7.60;6.10;;;;;;;;;;4972089;28;20563;-71
2023/10/16 16:17:45;;;;;;;8.50;6.70;;;;;;;;;;4971831;28;20847;-72